createdAt,value
2023-10-28T00:01:24.225Z,4.53
2023-10-28T00:03:51.699Z,4.82
2023-10-28T00:06:18.855Z,5.03
2023-10-28T00:08:46.216Z,4.95
2023-10-28T00:11:13.446Z,6.07
2023-10-28T00:13:41.210Z,5.78
2023-10-28T00:16:08.647Z,5.85
2023-10-28T00:18:36.282Z,5.28
2023-10-28T00:21:03.836Z,5.93
2023-10-28T00:23:32.842Z,5.43
2023-10-28T00:26:03.231Z,5.75
2023-10-28T00:28:34.534Z,5.80
2023-10-28T00:31:03.773Z,6.45
2023-10-28T00:33:31.456Z,5.63
2023-10-28T00:35:58.740Z,5.97
2023-10-28T00:38:26.020Z,5.93
2023-10-28T00:40:53.318Z,6.65
2023-10-28T00:43:23.627Z,6.55
2023-10-28T00:45:52.290Z,6.30
2023-10-28T00:48:19.851Z,6.03
2023-10-28T00:50:47.345Z,6.10
2023-10-28T00:53:16.507Z,6.22
2023-10-28T00:55:44.011Z,6.35
2023-10-28T00:58:11.692Z,6.28
2023-10-28T01:00:38.962Z,7.03
2023-10-28T01:03:06.360Z,6.50
2023-10-28T01:05:35.696Z,6.85
2023-10-28T01:08:03.073Z,6.18
2023-10-28T01:10:32.558Z,7.07
2023-10-28T01:13:01.081Z,5.95
2023-10-28T01:15:28.696Z,6.57
2023-10-28T01:17:55.938Z,6.30
2023-10-28T01:20:23.513Z,6.60
2023-10-28T01:22:51.227Z,6.70
2023-10-28T01:25:18.671Z,6.35
2023-10-28T01:27:46.326Z,6.78
2023-10-28T01:30:14.886Z,6.30
2023-10-28T01:32:43.798Z,7.50
2023-10-28T01:35:13.938Z,6.07
2023-10-28T01:37:41.671Z,6.10
2023-10-28T01:40:10.886Z,6.03
2023-10-28T01:42:38.163Z,6.28
2023-10-28T01:45:07.252Z,5.90
2023-10-28T01:47:34.996Z,5.70
2023-10-28T01:50:04.211Z,6.35
2023-10-28T01:52:31.513Z,6.05
2023-10-28T01:54:58.883Z,5.05
2023-10-28T01:57:26.328Z,5.45
2023-10-28T01:59:53.847Z,5.90
2023-10-28T02:02:21.185Z,4.85
2023-10-28T02:04:48.697Z,5.10
2023-10-28T02:07:15.903Z,5.45
2023-10-28T02:09:43.232Z,4.50
2023-10-28T02:12:10.502Z,4.25
2023-10-28T02:14:37.891Z,5.03
2023-10-28T02:17:05.765Z,4.93
2023-10-28T02:19:34.156Z,4.20
2023-10-28T02:22:12.767Z,4.90
2023-10-28T02:24:43.020Z,4.60
2023-10-28T02:27:11.631Z,4.63
2023-10-28T02:29:38.978Z,5.03
2023-10-28T02:32:09.690Z,4.85
2023-10-28T02:34:37.905Z,5.15
2023-10-28T02:37:06.676Z,5.35
2023-10-28T02:39:35.327Z,5.47
2023-10-28T02:42:02.608Z,5.65
2023-10-28T02:44:31.843Z,5.47
2023-10-28T02:46:59.723Z,5.88
2023-10-28T02:49:28.807Z,6.20
2023-10-28T02:51:56.153Z,4.93
2023-10-28T02:54:23.455Z,5.20
2023-10-28T02:56:50.586Z,5.85
2023-10-28T02:59:17.913Z,6.30
2023-10-28T03:01:45.281Z,5.95
2023-10-28T03:04:13.350Z,5.88
2023-10-28T03:06:40.709Z,6.00
2023-10-28T03:09:08.119Z,6.03
2023-10-28T03:11:35.443Z,6.00
2023-10-28T03:14:02.912Z,7.50
2023-10-28T03:16:30.299Z,6.15
2023-10-28T03:18:57.805Z,6.93
2023-10-28T03:21:25.575Z,6.10
2023-10-28T03:23:52.853Z,6.13
2023-10-28T03:26:20.050Z,6.13
2023-10-28T03:28:47.426Z,6.88
2023-10-28T03:31:16.216Z,7.03
2023-10-28T03:33:44.061Z,5.22
2023-10-28T03:36:11.211Z,6.85
2023-10-28T03:38:39.165Z,5.43
2023-10-28T03:41:10.064Z,6.57
2023-10-28T03:43:37.894Z,6.10
2023-10-28T03:46:05.649Z,6.20
2023-10-28T03:48:34.626Z,6.45
2023-10-28T03:51:05.280Z,5.85
2023-10-28T03:53:32.788Z,5.80
2023-10-28T03:56:00.106Z,6.13
2023-10-28T03:58:27.467Z,6.43
2023-10-28T04:00:56.269Z,5.95
2023-10-28T04:03:24.444Z,6.63
2023-10-28T04:05:52.476Z,5.25
2023-10-28T04:08:20.032Z,5.13
2023-10-28T04:10:48.017Z,5.30
2023-10-28T04:13:15.552Z,5.03
2023-10-28T04:15:43.475Z,5.70
2023-10-28T04:18:10.728Z,5.78
2023-10-28T04:20:39.128Z,6.63
2023-10-28T04:23:07.550Z,6.15
2023-10-28T04:25:35.452Z,5.60
2023-10-28T04:28:02.919Z,6.28
2023-10-28T04:30:31.440Z,5.78
2023-10-28T04:32:58.889Z,5.88
2023-10-28T04:35:29.000Z,6.13
2023-10-28T04:37:57.693Z,6.38
2023-10-28T04:40:26.486Z,6.35
2023-10-28T04:42:54.488Z,6.50
2023-10-28T04:45:23.248Z,7.50
2023-10-28T04:47:51.971Z,6.50
2023-10-28T04:50:19.801Z,6.13
2023-10-28T04:52:47.328Z,7.60
2023-10-28T04:55:14.969Z,6.63
2023-10-28T04:57:42.894Z,5.88
2023-10-28T05:00:11.047Z,6.70
2023-10-28T05:02:38.689Z,5.88
2023-10-28T05:05:06.716Z,6.45
2023-10-28T05:07:35.371Z,6.18
2023-10-28T05:10:04.171Z,6.38
2023-10-28T05:12:33.631Z,5.10
2023-10-28T05:15:00.896Z,4.93
2023-10-28T05:17:28.185Z,6.28
2023-10-28T05:19:55.522Z,5.57
2023-10-28T05:22:22.805Z,6.03
2023-10-28T05:24:53.676Z,5.95
2023-10-28T05:27:20.926Z,5.80
2023-10-28T05:29:49.462Z,5.45
2023-10-28T05:32:16.788Z,6.10
2023-10-28T05:34:45.066Z,5.43
2023-10-28T05:37:12.485Z,5.40
2023-10-28T05:39:41.563Z,5.03
2023-10-28T05:42:09.075Z,4.47
2023-10-28T05:44:36.576Z,3.83
2023-10-28T05:47:04.232Z,3.63
2023-10-28T05:49:32.045Z,5.03
2023-10-28T05:51:59.276Z,3.60
2023-10-28T05:54:26.519Z,3.10
2023-10-28T05:56:55.560Z,3.33
2023-10-28T05:59:23.048Z,3.10
2023-10-28T06:01:50.598Z,4.47
2023-10-28T06:04:18.021Z,3.15
2023-10-28T06:06:45.454Z,2.70
2023-10-28T06:09:12.712Z,3.30
2023-10-28T06:11:39.924Z,3.00
2023-10-28T06:14:07.348Z,3.70
2023-10-28T06:16:36.071Z,14.15
2023-10-28T06:19:03.452Z,3.40
2023-10-28T06:21:30.734Z,4.43
2023-10-28T06:23:57.855Z,3.20
2023-10-28T06:26:25.218Z,2.83
2023-10-28T06:28:52.570Z,4.93
2023-10-28T06:31:20.042Z,3.40
2023-10-28T06:33:47.305Z,2.58
2023-10-28T06:36:14.690Z,12.90
2023-10-28T06:38:41.948Z,9.05
2023-10-28T06:41:10.635Z,5.65
2023-10-28T06:43:37.919Z,3.08
2023-10-28T06:46:06.186Z,2.58
2023-10-28T06:48:34.571Z,2.70
2023-10-28T06:51:01.895Z,2.65
2023-10-28T06:53:29.152Z,3.00
2023-10-28T06:55:56.486Z,2.70
2023-10-28T06:58:24.117Z,2.50
2023-10-28T07:00:51.361Z,2.40
2023-10-28T07:03:18.614Z,2.25
2023-10-28T07:05:47.311Z,2.83
2023-10-28T07:08:16.678Z,2.47
2023-10-28T07:10:44.452Z,2.35
2023-10-28T07:13:13.780Z,2.70
2023-10-28T07:15:41.115Z,2.47
2023-10-28T07:18:09.983Z,2.70
2023-10-28T07:20:37.441Z,2.75
2023-10-28T07:23:04.673Z,3.10
2023-10-28T07:25:31.974Z,3.25
2023-10-28T07:27:59.315Z,3.80
2023-10-28T07:30:26.864Z,3.80
2023-10-28T07:32:54.174Z,4.00
2023-10-28T07:35:21.598Z,3.92
2023-10-28T07:37:48.885Z,4.38
2023-10-28T07:40:16.442Z,4.63
2023-10-28T07:42:43.761Z,4.32
2023-10-28T07:45:11.278Z,4.07
2023-10-28T07:47:38.709Z,4.28
2023-10-28T07:50:06.606Z,4.28
2023-10-28T07:52:34.495Z,4.75
2023-10-28T07:55:05.421Z,4.20
2023-10-28T07:57:32.813Z,4.75
2023-10-28T08:00:00.060Z,4.53
2023-10-28T08:02:29.145Z,4.55
2023-10-28T08:04:56.497Z,4.57
2023-10-28T08:07:23.802Z,4.63
2023-10-28T08:09:51.021Z,4.07
2023-10-28T08:12:20.047Z,4.07
2023-10-28T08:14:49.392Z,4.60
2023-10-28T08:17:17.558Z,5.05
2023-10-28T08:19:45.197Z,4.90
2023-10-28T08:22:13.852Z,4.85
2023-10-28T08:24:42.991Z,4.35
2023-10-28T08:27:10.362Z,4.90
2023-10-28T08:29:37.623Z,5.47
2023-10-28T08:32:05.370Z,4.53
2023-10-28T08:34:32.725Z,5.20
2023-10-28T08:37:00.285Z,5.03
2023-10-28T08:39:29.859Z,5.00
2023-10-28T08:42:02.104Z,4.75
2023-10-28T08:44:30.089Z,5.05
2023-10-28T08:46:57.840Z,5.80
2023-10-28T08:49:27.133Z,4.47
2023-10-28T08:51:59.649Z,4.78
2023-10-28T08:54:29.623Z,5.03
2023-10-28T08:56:57.890Z,5.40
2023-10-28T08:59:27.939Z,4.60
2023-10-28T09:01:58.530Z,5.13
2023-10-28T09:04:26.181Z,5.22
2023-10-28T09:06:53.424Z,4.60
2023-10-28T09:09:22.636Z,4.65
2023-10-28T09:11:49.947Z,4.97
2023-10-28T09:14:18.139Z,5.63
2023-10-28T09:16:46.438Z,5.28
2023-10-28T09:19:16.722Z,5.40
2023-10-28T09:21:43.909Z,5.45
2023-10-28T09:24:13.222Z,5.38
2023-10-28T09:26:41.492Z,5.22
2023-10-28T09:29:09.456Z,4.53
2023-10-28T09:31:38.545Z,4.75
2023-10-28T09:34:06.716Z,5.40
2023-10-28T09:36:34.280Z,4.53
2023-10-28T09:39:03.614Z,5.22
2023-10-28T09:41:32.573Z,4.88
2023-10-28T09:44:01.868Z,5.47
2023-10-28T09:49:05.670Z,5.10
2023-10-28T09:51:37.347Z,4.85
2023-10-28T09:54:09.587Z,5.13
2023-10-28T09:56:41.514Z,5.30
2023-10-28T09:59:16.409Z,5.00
2023-10-28T10:02:03.066Z,5.28
2023-10-28T10:04:36.347Z,4.78
2023-10-28T10:07:04.157Z,5.30
2023-10-28T10:09:42.528Z,5.45
2023-10-28T10:12:11.563Z,5.20
2023-10-28T10:14:41.924Z,4.80
2023-10-28T10:17:17.409Z,5.25
2023-10-28T10:19:44.774Z,4.53
2023-10-28T10:22:12.271Z,5.38
2023-10-28T10:24:50.941Z,5.47
2023-10-28T10:27:35.444Z,4.25
2023-10-28T10:30:05.633Z,4.80
2023-10-28T10:32:48.822Z,5.05
2023-10-28T10:35:19.328Z,5.25
2023-10-28T10:37:46.663Z,5.25
2023-10-28T10:40:15.364Z,4.65
2023-10-28T10:42:42.973Z,6.03
2023-10-28T10:45:10.522Z,5.55
2023-10-28T10:47:38.239Z,4.95
2023-10-28T10:50:07.324Z,5.03
2023-10-28T10:52:36.315Z,5.03
2023-10-28T10:55:05.889Z,5.72
2023-10-28T10:57:34.949Z,5.63
2023-10-28T11:00:02.244Z,5.88
2023-10-28T11:02:29.737Z,4.78
2023-10-28T11:04:59.525Z,4.90
2023-10-28T11:07:26.839Z,5.65
2023-10-28T11:09:55.516Z,5.63
2023-10-28T11:12:25.367Z,6.03
2023-10-28T11:14:56.280Z,5.70
2023-10-28T11:17:25.066Z,5.63
2023-10-28T11:19:52.667Z,5.40
2023-10-28T11:22:21.114Z,5.70
2023-10-28T11:24:56.844Z,5.30
2023-10-28T11:27:26.546Z,4.85
2023-10-28T11:29:58.155Z,4.53
2023-10-28T11:32:28.312Z,4.38
2023-10-28T11:34:58.715Z,4.25
2023-10-28T11:37:26.247Z,4.30
2023-10-28T11:39:53.833Z,3.75
2023-10-28T11:42:21.556Z,3.75
2023-10-28T11:44:50.955Z,3.88
2023-10-28T11:47:21.200Z,3.75
2023-10-28T11:49:48.674Z,3.60
2023-10-28T11:52:16.114Z,3.97
2023-10-28T11:54:44.111Z,4.38
2023-10-28T11:57:12.403Z,3.63
2023-10-28T11:59:39.554Z,4.03
2023-10-28T12:02:07.766Z,3.47
2023-10-28T12:04:35.307Z,4.05
2023-10-28T12:07:02.603Z,3.45
2023-10-28T12:09:29.890Z,3.20
2023-10-28T12:11:57.245Z,3.70
2023-10-28T12:14:24.482Z,3.60
2023-10-28T12:16:52.344Z,3.53
2023-10-28T12:19:19.546Z,3.20
2023-10-28T12:21:46.856Z,3.47
2023-10-28T12:24:14.107Z,3.75
2023-10-28T12:26:41.579Z,3.55
2023-10-28T12:29:09.174Z,3.25
2023-10-28T12:31:36.722Z,3.35
2023-10-28T12:34:05.082Z,3.25
2023-10-28T12:36:33.304Z,3.78
2023-10-28T12:39:00.520Z,3.05
2023-10-28T12:41:27.824Z,3.70
2023-10-28T12:43:55.076Z,3.60
2023-10-28T12:46:23.689Z,3.55
2023-10-28T12:48:51.166Z,3.70
2023-10-28T12:51:21.705Z,3.95
2023-10-28T12:53:49.102Z,3.42
2023-10-28T12:56:16.444Z,3.10
2023-10-28T12:58:43.665Z,3.55
2023-10-28T13:01:11.197Z,3.50
2023-10-28T13:03:38.505Z,3.78
2023-10-28T13:06:06.323Z,3.60
2023-10-28T13:08:33.734Z,3.40
2023-10-28T13:11:01.205Z,3.08
2023-10-28T13:13:28.297Z,3.38
2023-10-28T13:15:55.669Z,3.28
2023-10-28T13:18:22.918Z,2.88
2023-10-28T13:20:50.325Z,3.00
2023-10-28T13:23:17.599Z,3.05
2023-10-28T13:25:44.999Z,2.95
2023-10-28T13:28:12.185Z,3.22
2023-10-28T13:30:40.117Z,3.33
2023-10-28T13:33:08.779Z,3.40
2023-10-28T13:35:36.181Z,3.10
2023-10-28T13:38:03.518Z,3.05
2023-10-28T13:40:31.480Z,3.40
2023-10-28T13:42:59.588Z,3.10
2023-10-28T13:45:27.049Z,2.92
2023-10-28T13:47:54.329Z,3.05
2023-10-28T13:50:21.864Z,2.70
2023-10-28T13:52:49.964Z,2.80
2023-10-28T13:55:17.362Z,2.92
2023-10-28T13:57:45.289Z,3.33
2023-10-28T14:00:14.269Z,3.33
2023-10-28T14:02:42.700Z,2.65
2023-10-28T14:05:10.475Z,3.17
2023-10-28T14:07:38.521Z,2.85
2023-10-28T14:10:08.291Z,3.42
2023-10-28T14:12:35.718Z,3.00
2023-10-28T14:15:04.881Z,2.88
2023-10-28T14:17:32.209Z,2.58
2023-10-28T14:19:59.560Z,2.95
2023-10-28T14:22:26.797Z,2.83
2023-10-28T14:24:54.042Z,2.80
2023-10-28T14:27:21.387Z,2.95
2023-10-28T14:29:48.864Z,2.80
2023-10-28T14:32:17.498Z,2.88
2023-10-28T14:34:45.022Z,3.00
2023-10-28T14:37:12.281Z,2.53
2023-10-28T14:39:39.507Z,2.97
2023-10-28T14:42:08.972Z,2.60
2023-10-28T14:44:37.277Z,2.53
2023-10-28T14:47:06.181Z,2.63
2023-10-28T14:49:33.639Z,3.00
2023-10-28T14:52:01.315Z,2.92
2023-10-28T14:54:29.437Z,2.60
2023-10-28T14:56:56.549Z,2.63
2023-10-28T14:59:29.274Z,2.60
2023-10-28T15:01:59.376Z,2.58
2023-10-28T15:04:28.338Z,2.70
2023-10-28T15:06:55.902Z,2.35
2023-10-28T15:09:23.024Z,2.65
2023-10-28T15:11:50.387Z,2.67
2023-10-28T15:14:17.632Z,2.40
2023-10-28T15:16:46.988Z,2.55
2023-10-28T15:19:14.338Z,2.70
2023-10-28T15:21:41.796Z,2.50
2023-10-28T15:24:09.199Z,2.38
2023-10-28T15:26:36.488Z,2.38
2023-10-28T15:29:04.026Z,2.40
2023-10-28T15:31:31.297Z,2.35
2023-10-28T15:33:59.633Z,2.40
2023-10-28T15:36:26.917Z,2.50
2023-10-28T15:38:54.037Z,2.55
2023-10-28T15:41:21.382Z,2.42
2023-10-28T15:43:49.288Z,2.50
2023-10-28T15:46:18.260Z,2.63
2023-10-28T15:51:13.505Z,2.65
2023-10-28T15:53:41.510Z,2.50
2023-10-28T15:56:12.222Z,2.38
2023-10-28T15:58:40.734Z,2.63
2023-10-28T16:01:08.401Z,2.80
2023-10-28T16:03:35.741Z,2.38
2023-10-28T16:06:06.636Z,2.63
2023-10-28T16:08:34.083Z,2.85
2023-10-28T16:11:01.307Z,2.70
2023-10-28T16:13:28.796Z,2.83
2023-10-28T16:15:56.184Z,2.90
2023-10-28T16:18:23.439Z,2.88
2023-10-28T16:20:50.896Z,2.70
2023-10-28T16:23:18.293Z,2.65
2023-10-28T16:25:45.477Z,2.80
2023-10-28T16:28:12.878Z,2.50
2023-10-28T16:30:40.230Z,2.85
2023-10-28T16:33:07.556Z,2.80
2023-10-28T16:35:35.849Z,2.65
2023-10-28T16:38:03.297Z,2.72
2023-10-28T16:40:33.494Z,2.50
2023-10-28T16:43:02.980Z,2.67
2023-10-28T16:45:30.125Z,2.80
2023-10-28T16:47:57.565Z,2.53
2023-10-28T16:50:25.137Z,2.50
2023-10-28T16:52:52.536Z,2.70
2023-10-28T16:55:19.855Z,2.58
2023-10-28T16:57:47.376Z,3.00
2023-10-28T17:00:14.865Z,2.80
2023-10-28T17:02:42.243Z,3.63
2023-10-28T17:05:09.735Z,4.50
2023-10-28T17:07:37.353Z,5.53
2023-10-28T17:10:05.009Z,9.98
2023-10-28T17:12:32.337Z,7.50
2023-10-28T17:15:00.485Z,11.68
2023-10-28T17:17:28.409Z,13.68
2023-10-28T17:19:57.601Z,13.25
2023-10-28T17:22:24.937Z,12.43
2023-10-28T17:24:52.136Z,15.18
2023-10-28T17:27:25.155Z,14.13
2023-10-28T17:29:54.491Z,15.10
2023-10-28T17:32:21.921Z,18.17
2023-10-28T17:34:50.046Z,13.70
2023-10-28T17:37:17.312Z,15.95
2023-10-28T17:39:44.626Z,11.23
2023-10-28T17:42:11.896Z,10.55
2023-10-28T17:44:39.442Z,7.47
2023-10-28T17:47:06.791Z,6.28
2023-10-28T17:49:34.269Z,5.22
2023-10-28T17:52:03.498Z,3.90
2023-10-28T17:54:30.977Z,3.40
2023-10-28T17:56:59.261Z,2.88
2023-10-28T17:59:26.734Z,2.90
2023-10-28T18:01:55.069Z,2.60
2023-10-28T18:04:22.953Z,3.13
2023-10-28T18:06:50.421Z,2.50
2023-10-28T18:09:17.755Z,2.60
2023-10-28T18:11:45.143Z,2.60
2023-10-28T18:14:12.657Z,2.50
2023-10-28T18:16:39.977Z,2.53
2023-10-28T18:19:07.375Z,2.28
2023-10-28T18:21:35.661Z,2.60
2023-10-28T18:24:02.916Z,2.38
2023-10-28T18:26:30.691Z,3.00
2023-10-28T18:28:58.045Z,2.67
2023-10-28T18:31:26.171Z,2.80
2023-10-28T18:33:54.533Z,2.80
2023-10-28T18:36:23.318Z,2.65
2023-10-28T18:38:51.088Z,2.88
2023-10-28T18:41:19.008Z,2.47
2023-10-28T18:43:46.328Z,2.60
2023-10-28T18:46:14.858Z,2.60
2023-10-28T18:48:42.173Z,2.50
2023-10-28T18:51:10.487Z,2.30
2023-10-28T18:53:39.152Z,2.60
2023-10-28T18:56:10.474Z,2.47
2023-10-28T18:58:41.305Z,2.45
2023-10-28T19:01:12.111Z,2.60
2023-10-28T19:03:39.653Z,2.85
2023-10-28T19:06:07.501Z,2.50
2023-10-28T19:08:34.799Z,2.60
2023-10-28T19:11:02.106Z,2.40
2023-10-28T19:13:29.257Z,2.30
2023-10-28T19:15:56.855Z,2.38
2023-10-28T19:18:24.009Z,2.38
2023-10-28T19:20:51.326Z,2.10
2023-10-28T19:23:19.884Z,2.10
2023-10-28T19:25:47.227Z,2.10
2023-10-28T19:28:16.798Z,2.22
2023-10-28T19:30:44.789Z,2.10
2023-10-28T19:33:12.029Z,2.10
2023-10-28T19:35:39.409Z,2.42
2023-10-28T19:38:06.736Z,2.10
2023-10-28T19:40:34.096Z,2.20
2023-10-28T19:43:02.444Z,1.80
2023-10-28T19:45:29.821Z,1.90
2023-10-28T19:47:57.101Z,2.10
2023-10-28T19:50:26.303Z,1.90
2023-10-28T19:52:53.706Z,1.80
2023-10-28T19:55:20.971Z,2.00
2023-10-28T19:57:48.374Z,1.90
2023-10-28T20:00:16.083Z,1.98
2023-10-28T20:02:44.538Z,2.20
2023-10-28T20:05:13.303Z,2.00
2023-10-28T20:07:41.404Z,2.17
2023-10-28T20:10:09.010Z,2.03
2023-10-28T20:12:36.682Z,2.10
2023-10-28T20:15:05.221Z,2.15
2023-10-28T20:17:32.774Z,2.33
2023-10-28T20:20:01.296Z,2.28
2023-10-28T20:22:28.764Z,2.05
2023-10-28T20:24:56.227Z,2.13
2023-10-28T20:27:23.677Z,2.22
2023-10-28T20:29:51.370Z,2.40
2023-10-28T20:32:19.926Z,2.40
2023-10-28T20:34:47.176Z,2.80
2023-10-28T20:37:14.543Z,3.00
2023-10-28T20:39:41.973Z,2.97
2023-10-28T20:42:09.342Z,2.92
2023-10-28T20:44:36.730Z,2.60
2023-10-28T20:47:04.196Z,2.85
2023-10-28T20:49:31.930Z,3.00
2023-10-28T20:51:59.349Z,3.08
2023-10-28T20:54:26.567Z,3.45
2023-10-28T20:56:53.937Z,3.22
2023-10-28T20:59:21.210Z,2.90
2023-10-28T21:01:48.579Z,2.78
2023-10-28T21:04:15.786Z,2.70
2023-10-28T21:06:43.115Z,2.50
2023-10-28T21:09:10.277Z,2.53
2023-10-28T21:11:37.573Z,2.95
2023-10-28T21:14:04.818Z,2.72
2023-10-28T21:16:37.315Z,3.15
2023-10-28T21:19:05.419Z,3.08
2023-10-28T21:21:33.715Z,2.75
2023-10-28T21:24:02.536Z,3.30
2023-10-28T21:26:30.637Z,3.40
2023-10-28T21:28:58.167Z,2.95
2023-10-28T21:31:25.357Z,3.72
2023-10-28T21:33:52.877Z,3.55
2023-10-28T21:36:20.956Z,3.50
2023-10-28T21:38:48.257Z,4.45
2023-10-28T21:41:16.051Z,4.45
2023-10-28T21:43:44.087Z,3.60
2023-10-28T21:46:11.339Z,3.45
2023-10-28T21:48:38.967Z,3.70
2023-10-28T21:51:07.423Z,3.40
2023-10-28T21:53:35.364Z,3.25
2023-10-28T21:56:04.998Z,3.88
2023-10-28T21:58:35.159Z,3.28
2023-10-28T22:01:02.683Z,4.28
2023-10-28T22:03:30.324Z,4.05
2023-10-28T22:05:57.898Z,3.47
2023-10-28T22:08:25.303Z,4.25
2023-10-28T22:10:52.937Z,3.67
2023-10-28T22:13:20.257Z,4.20
2023-10-28T22:15:47.543Z,3.95
2023-10-28T22:18:15.541Z,3.38
2023-10-28T22:20:45.916Z,3.40
2023-10-28T22:23:13.599Z,4.13
2023-10-28T22:25:41.593Z,3.78
2023-10-28T22:28:15.352Z,3.72
2023-10-28T22:30:46.319Z,4.10
2023-10-28T22:33:15.036Z,4.15
2023-10-28T22:35:43.249Z,5.03
2023-10-28T22:38:13.419Z,3.38
2023-10-28T22:40:43.516Z,4.35
2023-10-28T22:43:11.581Z,3.83
2023-10-28T22:45:38.860Z,4.45
2023-10-28T22:48:06.674Z,3.75
2023-10-28T22:50:34.089Z,3.85
2023-10-28T22:53:01.427Z,4.78
2023-10-28T22:55:28.700Z,4.82
2023-10-28T22:57:57.263Z,3.90
2023-10-28T23:00:28.186Z,4.07
2023-10-28T23:02:56.055Z,5.20
2023-10-28T23:05:23.476Z,5.10
2023-10-28T23:07:51.789Z,4.85
2023-10-28T23:10:19.225Z,5.43
2023-10-28T23:12:47.510Z,4.60
2023-10-28T23:15:14.813Z,4.15
2023-10-28T23:17:43.892Z,4.53
2023-10-28T23:20:14.438Z,4.38
2023-10-28T23:22:42.224Z,3.92
2023-10-28T23:25:10.329Z,5.57
2023-10-28T23:27:37.926Z,4.28
2023-10-28T23:30:06.407Z,4.38
2023-10-28T23:32:33.900Z,4.88
2023-10-28T23:35:01.248Z,4.53
2023-10-28T23:37:33.997Z,4.07
2023-10-28T23:40:02.352Z,3.63
2023-10-28T23:42:29.614Z,4.80
2023-10-28T23:44:56.994Z,3.78
2023-10-28T23:47:24.367Z,4.32
2023-10-28T23:49:51.760Z,3.90
2023-10-28T23:52:18.959Z,3.75
2023-10-28T23:54:46.455Z,4.20
2023-10-28T23:57:13.881Z,3.67
2023-10-28T23:59:41.228Z,3.55
